createdAt,value
2022-11-12T00:00:33.648Z,11.80
2022-11-12T00:03:20.976Z,11.80
2022-11-12T00:06:07.914Z,11.75
2022-11-12T00:08:54.789Z,13.02
2022-11-12T00:11:41.910Z,11.40
2022-11-12T00:14:29.938Z,10.90
2022-11-12T00:17:18.196Z,11.60
2022-11-12T00:20:06.904Z,12.57
2022-11-12T00:22:53.605Z,10.95
2022-11-12T00:25:40.330Z,10.82
2022-11-12T00:28:27.239Z,11.25
2022-11-12T00:31:15.036Z,12.02
2022-11-12T00:34:03.437Z,13.77
2022-11-12T00:36:50.150Z,10.68
2022-11-12T00:39:37.056Z,10.82
2022-11-12T00:42:24.106Z,10.63
2022-11-12T00:45:11.601Z,10.10
2022-11-12T00:47:58.902Z,9.18
2022-11-12T00:50:48.104Z,9.70
2022-11-12T00:53:35.131Z,8.73
2022-11-12T00:56:22.734Z,8.63
2022-11-12T00:59:09.823Z,8.52
2022-11-12T01:01:56.919Z,8.10
2022-11-12T01:04:43.874Z,7.60
2022-11-12T01:07:31.997Z,7.75
2022-11-12T01:10:19.010Z,7.40
2022-11-12T01:13:06.183Z,7.38
2022-11-12T01:15:53.023Z,7.50
2022-11-12T01:18:40.204Z,7.18
2022-11-12T01:21:30.277Z,6.72
2022-11-12T01:24:18.587Z,7.38
2022-11-12T01:27:05.477Z,8.18
2022-11-12T01:29:52.143Z,7.45
2022-11-12T01:32:38.906Z,7.88
2022-11-12T01:35:25.709Z,7.97
2022-11-12T01:38:12.244Z,8.23
2022-11-12T01:41:01.700Z,8.25
2022-11-12T01:43:49.067Z,8.20
2022-11-12T01:46:41.778Z,8.32
2022-11-12T01:49:34.057Z,7.80
2022-11-12T01:52:25.869Z,7.47
2022-11-12T01:55:17.702Z,8.18
2022-11-12T01:58:11.226Z,7.55
2022-11-12T02:00:58.862Z,7.78
2022-11-12T02:03:45.644Z,7.60
2022-11-12T02:06:34.028Z,7.60
2022-11-12T02:09:21.169Z,7.90
2022-11-12T02:12:28.520Z,8.15
2022-11-12T02:15:15.949Z,7.45
2022-11-12T02:18:02.735Z,8.30
2022-11-12T02:20:56.024Z,8.43
2022-11-12T02:26:36.501Z,7.95
2022-11-12T02:29:23.750Z,8.18
2022-11-12T02:32:10.563Z,8.15
2022-11-12T02:34:58.193Z,7.40
2022-11-12T02:37:45.012Z,8.13
2022-11-12T02:40:33.088Z,7.68
2022-11-12T02:43:20.104Z,7.82
2022-11-12T02:46:07.547Z,7.97
2022-11-12T02:48:54.385Z,8.20
2022-11-12T02:51:41.040Z,7.82
2022-11-12T02:54:27.767Z,8.40
2022-11-12T02:57:15.737Z,8.13
2022-11-12T03:00:02.705Z,7.47
2022-11-12T03:02:59.418Z,7.22
2022-11-12T03:05:55.275Z,6.53
2022-11-12T03:08:42.594Z,6.43
2022-11-12T03:11:29.666Z,6.18
2022-11-12T03:14:17.808Z,6.60
2022-11-12T03:17:04.877Z,5.97
2022-11-12T03:19:51.480Z,7.00
2022-11-12T03:22:38.327Z,5.82
2022-11-12T03:25:25.148Z,6.75
2022-11-12T03:28:14.416Z,6.72
2022-11-12T03:31:02.793Z,6.22
2022-11-12T03:33:49.435Z,5.65
2022-11-12T03:36:36.170Z,6.18
2022-11-12T03:39:22.778Z,6.60
2022-11-12T03:42:10.330Z,5.85
2022-11-12T03:44:57.449Z,6.18
2022-11-12T03:47:48.650Z,6.85
2022-11-12T03:50:35.827Z,6.07
2022-11-12T03:53:22.464Z,6.03
2022-11-12T03:56:09.394Z,5.97
2022-11-12T03:58:56.455Z,5.60
2022-11-12T04:01:43.543Z,5.90
2022-11-12T04:04:45.678Z,5.50
2022-11-12T04:07:50.237Z,5.75
2022-11-12T04:10:37.030Z,6.80
2022-11-12T04:13:30.319Z,5.45
2022-11-12T04:16:37.363Z,5.93
2022-11-12T04:19:50.341Z,5.68
2022-11-12T04:22:38.701Z,6.13
2022-11-12T04:25:43.625Z,6.18
2022-11-12T04:28:30.689Z,6.13
2022-11-12T04:31:16.607Z,5.90
2022-11-12T04:34:17.472Z,5.20
2022-11-12T04:37:05.750Z,5.47
2022-11-12T04:39:54.364Z,5.40
2022-11-12T04:43:00.226Z,5.13
2022-11-12T04:45:51.283Z,5.07
2022-11-12T04:48:37.919Z,4.93
2022-11-12T04:51:42.117Z,5.45
2022-11-12T04:54:29.086Z,5.07
2022-11-12T04:57:16.965Z,4.53
2022-11-12T05:00:04.876Z,4.93
2022-11-12T05:02:51.969Z,4.57
2022-11-12T05:05:39.069Z,4.82
2022-11-12T05:08:25.960Z,4.88
2022-11-12T05:11:13.156Z,4.45
2022-11-12T05:14:01.706Z,4.68
2022-11-12T05:16:49.000Z,4.05
2022-11-12T05:19:36.118Z,3.78
2022-11-12T05:22:42.629Z,4.28
2022-11-12T05:25:30.938Z,4.22
2022-11-12T05:28:17.409Z,3.53
2022-11-12T05:31:05.683Z,4.28
2022-11-12T05:33:52.415Z,4.03
2022-11-12T05:36:39.379Z,4.00
2022-11-12T05:39:26.723Z,3.88
2022-11-12T05:42:14.551Z,4.10
2022-11-12T05:45:01.738Z,3.58
2022-11-12T05:47:50.626Z,4.40
2022-11-12T05:50:51.221Z,4.05
2022-11-12T05:53:44.615Z,3.97
2022-11-12T05:56:31.968Z,4.20
2022-11-12T05:59:19.761Z,4.43
2022-11-12T06:02:06.411Z,4.68
2022-11-12T06:04:54.610Z,4.75
2022-11-12T06:07:41.803Z,4.28
2022-11-12T06:10:29.005Z,4.68
2022-11-12T06:13:15.931Z,5.05
2022-11-12T06:16:03.572Z,5.50
2022-11-12T06:18:50.703Z,5.35
2022-11-12T06:21:38.700Z,5.32
2022-11-12T06:24:32.098Z,6.03
2022-11-12T06:27:21.788Z,6.32
2022-11-12T06:30:10.427Z,6.07
2022-11-12T06:32:58.204Z,5.38
2022-11-12T06:35:45.294Z,5.35
2022-11-12T06:38:34.909Z,5.47
2022-11-12T06:41:22.883Z,5.47
2022-11-12T06:44:09.741Z,5.47
2022-11-12T06:46:56.323Z,6.20
2022-11-12T06:49:43.133Z,6.63
2022-11-12T06:52:30.105Z,5.60
2022-11-12T06:55:18.239Z,6.43
2022-11-12T06:58:06.009Z,6.00
2022-11-12T07:00:53.101Z,7.15
2022-11-12T07:03:42.712Z,6.97
2022-11-12T07:06:29.727Z,6.60
2022-11-12T07:09:16.326Z,6.55
2022-11-12T07:12:04.524Z,7.10
2022-11-12T07:14:52.533Z,7.55
2022-11-12T07:17:39.559Z,6.93
2022-11-12T07:20:26.847Z,7.38
2022-11-12T07:23:13.712Z,7.30
2022-11-12T07:26:03.107Z,7.50
2022-11-12T07:28:53.144Z,7.85
2022-11-12T07:31:39.945Z,8.85
2022-11-12T07:34:26.699Z,8.15
2022-11-12T07:37:13.443Z,7.47
2022-11-12T07:40:00.261Z,8.43
2022-11-12T07:42:46.907Z,7.75
2022-11-12T07:45:35.974Z,6.85
2022-11-12T07:48:22.841Z,6.57
2022-11-12T07:51:14.718Z,6.45
2022-11-12T07:54:01.745Z,5.82
2022-11-12T07:56:48.482Z,6.20
2022-11-12T07:59:35.435Z,9.07
2022-11-12T08:02:23.633Z,7.57
2022-11-12T08:05:17.604Z,8.85
2022-11-12T08:08:06.164Z,8.13
2022-11-12T08:10:56.892Z,8.07
2022-11-12T08:13:43.529Z,7.55
2022-11-12T08:16:30.201Z,8.65
2022-11-12T08:19:18.155Z,8.63
2022-11-12T08:22:05.993Z,7.13
2022-11-12T08:24:52.585Z,7.72
2022-11-12T08:27:39.447Z,7.63
2022-11-12T08:30:26.744Z,7.68
2022-11-12T08:33:13.401Z,8.48
2022-11-12T08:36:04.370Z,10.35
2022-11-12T08:38:54.299Z,10.30
2022-11-12T08:41:40.981Z,11.63
2022-11-12T08:44:27.690Z,10.57
2022-11-12T08:47:14.390Z,10.13
2022-11-12T08:50:00.947Z,9.15
2022-11-12T08:52:49.659Z,7.75
2022-11-12T08:55:37.212Z,7.38
2022-11-12T08:58:24.609Z,6.90
2022-11-12T09:01:13.107Z,7.30
2022-11-12T09:04:01.030Z,6.85
2022-11-12T09:06:53.595Z,6.13
2022-11-12T09:09:42.263Z,7.32
2022-11-12T09:12:29.502Z,6.47
2022-11-12T09:15:37.900Z,6.65
2022-11-12T09:18:23.619Z,6.88
2022-11-12T09:21:13.372Z,6.70
2022-11-12T09:24:00.497Z,6.60
2022-11-12T09:26:48.839Z,6.63
2022-11-12T09:29:35.572Z,7.60
2022-11-12T09:32:22.082Z,7.63
2022-11-12T09:35:09.309Z,8.88
2022-11-12T09:37:56.089Z,8.65
2022-11-12T09:41:15.680Z,8.63
2022-11-12T09:44:09.718Z,8.25
2022-11-12T09:47:03.737Z,9.65
2022-11-12T09:50:00.029Z,8.57
2022-11-12T09:52:48.372Z,8.35
2022-11-12T09:55:40.939Z,13.73
2022-11-12T09:58:29.022Z,112.80
2022-11-12T10:01:23.102Z,123.15
2022-11-12T10:04:45.203Z,79.35
2022-11-12T10:07:53.626Z,25.25
2022-11-12T10:10:48.232Z,10.65
2022-11-12T10:13:53.206Z,8.85
2022-11-12T10:16:58.752Z,10.13
2022-11-12T10:20:02.119Z,9.75
2022-11-12T10:25:54.574Z,8.63
2022-11-12T10:28:47.987Z,8.70
2022-11-12T10:34:25.385Z,9.88
2022-11-12T10:37:20.154Z,8.40
2022-11-12T10:40:33.226Z,7.80
2022-11-12T10:46:20.598Z,8.68
2022-11-12T10:49:23.688Z,7.20
2022-11-12T10:52:24.835Z,7.45
2022-11-12T10:55:21.086Z,6.38
2022-11-12T10:58:19.863Z,5.93
2022-11-12T11:01:15.500Z,6.70
2022-11-12T11:04:02.553Z,7.97
2022-11-12T11:06:49.420Z,7.05
2022-11-12T11:09:38.516Z,6.38
2022-11-12T11:12:29.039Z,5.80
2022-11-12T11:15:22.730Z,6.03
2022-11-12T11:18:12.514Z,5.93
2022-11-12T11:21:19.428Z,6.25
2022-11-12T11:24:26.572Z,5.53
2022-11-12T11:27:39.121Z,5.20
2022-11-12T11:30:26.526Z,5.07
2022-11-12T11:33:40.579Z,5.82
2022-11-12T11:36:36.018Z,5.65
2022-11-12T11:39:36.139Z,6.13
2022-11-12T11:42:55.807Z,5.45
2022-11-12T11:46:03.431Z,6.20
2022-11-12T11:49:09.316Z,7.15
2022-11-12T11:52:03.559Z,8.23
2022-11-12T11:55:10.792Z,7.10
2022-11-12T11:58:16.995Z,5.70
2022-11-12T12:01:16.672Z,5.95
2022-11-12T12:04:27.542Z,6.55
2022-11-12T12:07:33.304Z,5.25
2022-11-12T12:10:46.315Z,5.03
2022-11-12T12:13:50.104Z,5.27
2022-11-12T12:17:00.400Z,4.88
2022-11-12T12:20:04.237Z,8.18
2022-11-12T12:22:57.892Z,25.33
2022-11-12T12:25:48.265Z,8.68
2022-11-12T12:28:42.959Z,6.05
2022-11-12T12:31:37.845Z,4.90
2022-11-12T12:34:31.227Z,4.72
2022-11-12T12:37:29.280Z,3.90
2022-11-12T12:40:22.698Z,4.70
2022-11-12T12:46:05.711Z,4.85
2022-11-12T12:48:54.990Z,5.20
2022-11-12T12:51:41.469Z,7.63
2022-11-12T12:54:59.517Z,14.57
2022-11-12T12:57:46.731Z,14.80
2022-11-12T13:00:39.590Z,7.63
2022-11-12T13:04:04.979Z,6.25
2022-11-12T13:06:54.913Z,4.65
2022-11-12T13:09:42.042Z,6.28
2022-11-12T13:13:03.797Z,6.15
2022-11-12T13:15:54.012Z,6.15
2022-11-12T13:19:02.018Z,7.45
2022-11-12T13:22:49.178Z,7.15
2022-11-12T13:25:36.282Z,5.53
2022-11-12T13:28:24.762Z,5.90
2022-11-12T13:31:29.066Z,5.03
2022-11-12T13:34:22.733Z,4.05
2022-11-12T13:37:22.265Z,4.05
2022-11-12T13:40:15.445Z,4.03
2022-11-12T13:43:12.181Z,4.07
2022-11-12T13:46:10.817Z,3.30
2022-11-12T13:49:03.438Z,3.13
2022-11-12T13:51:53.174Z,3.78
2022-11-12T13:54:41.848Z,3.70
2022-11-12T13:57:33.293Z,3.13
2022-11-12T14:00:38.562Z,3.30
2022-11-12T14:03:30.038Z,3.65
2022-11-12T14:06:22.014Z,3.00
2022-11-12T14:09:49.638Z,3.40
2022-11-12T14:12:59.462Z,3.45
2022-11-12T14:16:16.807Z,3.75
2022-11-12T14:19:58.723Z,3.20
2022-11-12T14:22:46.982Z,3.78
2022-11-12T14:25:35.703Z,3.00
2022-11-12T14:28:29.882Z,3.72
2022-11-12T14:31:24.267Z,3.60
2022-11-12T14:34:28.038Z,3.95
2022-11-12T14:37:39.798Z,3.63
2022-11-12T14:40:33.427Z,3.97
2022-11-12T14:43:42.707Z,4.25
2022-11-12T14:46:38.325Z,4.10
2022-11-12T14:49:40.670Z,3.40
2022-11-12T14:52:35.698Z,3.42
2022-11-12T14:55:26.793Z,23.97
2022-11-12T14:58:15.978Z,27.95
2022-11-12T15:02:13.856Z,21.63
2022-11-12T15:04:39.251Z,12.27
2022-11-12T15:07:29.356Z,10.02
2022-11-12T15:10:37.341Z,6.22
2022-11-12T15:13:27.900Z,5.60
2022-11-12T15:16:24.164Z,5.38
2022-11-12T15:19:23.355Z,4.38
2022-11-12T15:22:21.588Z,4.68
2022-11-12T15:25:23.591Z,4.35
2022-11-12T15:28:23.615Z,4.75
2022-11-12T15:31:20.668Z,7.78
2022-11-12T15:34:47.526Z,8.90
2022-11-12T15:37:44.101Z,7.93
2022-11-12T15:40:32.991Z,7.32
2022-11-12T15:43:24.633Z,6.22
2022-11-12T15:46:15.403Z,7.32
2022-11-12T15:49:02.211Z,6.80
2022-11-12T15:51:50.555Z,8.77
2022-11-12T15:54:41.202Z,8.82
2022-11-12T15:57:32.847Z,7.72
2022-11-12T16:00:22.440Z,6.50
2022-11-12T16:03:16.572Z,5.60
2022-11-12T16:06:08.564Z,9.32
2022-11-12T16:08:57.566Z,9.82
2022-11-12T16:11:44.116Z,6.75
2022-11-12T16:14:31.386Z,26.67
2022-11-12T16:17:19.871Z,39.28
2022-11-12T16:20:14.395Z,14.25
2022-11-12T16:23:01.816Z,13.68
2022-11-12T16:25:50.116Z,11.40
2022-11-12T16:28:38.397Z,8.00
2022-11-12T16:31:25.879Z,7.32
2022-11-12T16:34:13.367Z,6.88
2022-11-12T16:37:00.493Z,7.45
2022-11-12T16:39:47.032Z,9.07
2022-11-12T16:42:35.183Z,8.25
2022-11-12T16:45:23.872Z,7.32
2022-11-12T16:48:17.623Z,6.63
2022-11-12T16:51:04.447Z,6.70
2022-11-12T16:53:51.484Z,11.50
2022-11-12T16:56:38.330Z,13.20
2022-11-12T16:59:26.252Z,17.92
2022-11-12T17:02:16.402Z,13.73
2022-11-12T17:05:04.351Z,12.55
2022-11-12T17:07:57.154Z,12.57
2022-11-12T17:10:44.208Z,9.30
2022-11-12T17:13:30.992Z,9.10
2022-11-12T17:16:19.136Z,8.52
2022-11-12T17:19:06.490Z,8.45
2022-11-12T17:21:53.561Z,9.23
2022-11-12T17:24:40.149Z,8.90
2022-11-12T17:27:27.365Z,8.63
2022-11-12T17:30:15.177Z,9.40
2022-11-12T17:33:04.529Z,8.57
2022-11-12T17:35:51.440Z,9.25
2022-11-12T17:38:38.490Z,8.93
2022-11-12T17:41:26.202Z,8.45
2022-11-12T17:44:17.410Z,9.63
2022-11-12T17:47:04.269Z,9.65
2022-11-12T17:49:52.560Z,10.48
2022-11-12T17:52:39.289Z,9.77
2022-11-12T17:55:25.999Z,8.68
2022-11-12T17:58:12.627Z,9.18
2022-11-12T18:01:07.306Z,9.32
2022-11-12T18:03:56.894Z,20.98
2022-11-12T18:06:45.474Z,19.48
2022-11-12T18:09:32.599Z,18.42
2022-11-12T18:12:19.314Z,14.18
2022-11-12T18:15:07.484Z,10.82
2022-11-12T18:17:54.314Z,11.30
2022-11-12T18:20:42.570Z,9.35
2022-11-12T18:23:30.890Z,8.15
2022-11-12T18:26:19.301Z,8.90
2022-11-12T18:29:07.271Z,10.95
2022-11-12T18:31:54.372Z,20.55
2022-11-12T18:34:44.894Z,31.65
2022-11-12T18:37:31.924Z,29.90
2022-11-12T18:40:21.778Z,22.77
2022-11-12T18:43:08.720Z,18.70
2022-11-12T18:45:56.381Z,16.95
2022-11-12T18:48:43.458Z,14.25
2022-11-12T18:51:30.676Z,20.75
2022-11-12T18:54:19.099Z,14.55
2022-11-12T18:57:07.429Z,12.40
2022-11-12T18:59:55.048Z,11.40
2022-11-12T19:02:43.169Z,11.70
2022-11-12T19:05:30.610Z,11.70
2022-11-12T19:08:19.390Z,11.20
2022-11-12T19:11:10.776Z,12.10
2022-11-12T19:13:58.914Z,12.70
2022-11-12T19:16:45.719Z,12.55
2022-11-12T19:19:33.600Z,12.30
2022-11-12T19:22:20.488Z,12.10
2022-11-12T19:25:08.263Z,12.60
2022-11-12T19:27:55.176Z,10.50
2022-11-12T19:30:43.467Z,11.05
2022-11-12T19:33:31.318Z,11.52
2022-11-12T19:36:20.668Z,11.35
2022-11-12T19:39:07.317Z,13.55
2022-11-12T19:41:54.273Z,21.52
2022-11-12T19:44:41.415Z,15.70
2022-11-12T19:47:29.524Z,13.57
2022-11-12T19:50:20.892Z,14.05
2022-11-12T19:53:11.758Z,13.07
2022-11-12T19:56:01.627Z,12.15
2022-11-12T19:58:50.036Z,12.93
2022-11-12T20:01:37.464Z,13.90
2022-11-12T20:04:25.393Z,19.35
2022-11-12T20:07:12.496Z,20.73
2022-11-12T20:10:01.106Z,18.95
2022-11-12T20:12:48.457Z,18.30
2022-11-12T20:15:35.280Z,19.23
2022-11-12T20:18:22.449Z,19.52
2022-11-12T20:21:10.828Z,19.75
2022-11-12T20:24:00.933Z,21.67
2022-11-12T20:26:47.642Z,20.13
2022-11-12T20:29:34.578Z,19.17
2022-11-12T20:32:22.000Z,18.05
2022-11-12T20:35:17.776Z,17.33
2022-11-12T20:38:09.556Z,16.90
2022-11-12T20:41:02.706Z,17.45
2022-11-12T20:46:36.113Z,18.60
2022-11-12T20:49:22.863Z,20.05
2022-11-12T20:52:09.544Z,18.60
2022-11-12T20:54:57.805Z,18.42
2022-11-12T20:57:46.821Z,16.50
2022-11-12T21:00:33.945Z,17.65
2022-11-12T21:03:21.827Z,18.48
2022-11-12T21:06:12.658Z,23.63
2022-11-12T21:09:00.916Z,20.90
2022-11-12T21:11:49.269Z,23.02
2022-11-12T21:14:36.513Z,24.25
2022-11-12T21:17:23.844Z,19.80
2022-11-12T21:20:11.748Z,19.63
2022-11-12T21:22:58.842Z,17.90
2022-11-12T21:25:45.582Z,18.83
2022-11-12T21:28:38.021Z,17.38
2022-11-12T21:31:28.001Z,20.02
2022-11-12T21:34:15.174Z,17.05
2022-11-12T21:37:02.885Z,17.80
2022-11-12T21:39:49.888Z,17.35
2022-11-12T21:42:36.620Z,18.33
2022-11-12T21:45:24.749Z,20.92
2022-11-12T21:48:11.270Z,19.13
2022-11-12T21:51:03.590Z,18.40
2022-11-12T21:53:55.503Z,17.70
2022-11-12T21:56:42.192Z,19.98
2022-11-12T21:59:29.197Z,18.77
2022-11-12T22:02:17.479Z,14.75
2022-11-12T22:05:04.545Z,16.60
2022-11-12T22:07:52.924Z,14.10
2022-11-12T22:10:39.756Z,15.57
2022-11-12T22:13:27.665Z,20.75
2022-11-12T22:16:17.221Z,17.02
2022-11-12T22:19:05.638Z,18.17
2022-11-12T22:21:52.408Z,18.00
2022-11-12T22:24:39.487Z,17.00
2022-11-12T22:27:26.885Z,17.90
2022-11-12T22:30:14.324Z,16.02
2022-11-12T22:33:02.505Z,19.85
2022-11-12T22:35:50.752Z,17.75
2022-11-12T22:38:40.239Z,18.73
2022-11-12T22:41:29.882Z,16.75
2022-11-12T22:44:16.810Z,16.13
2022-11-12T22:47:03.368Z,14.70
2022-11-12T22:49:50.394Z,14.43
2022-11-12T22:52:38.496Z,16.90
2022-11-12T22:55:25.342Z,17.17
2022-11-12T22:58:13.677Z,15.70
2022-11-12T23:01:00.663Z,14.85
2022-11-12T23:03:47.400Z,14.73
2022-11-12T23:06:34.277Z,15.73
2022-11-12T23:09:22.648Z,16.23
2022-11-12T23:12:09.390Z,15.90
2022-11-12T23:14:56.118Z,17.38
2022-11-12T23:17:43.470Z,19.08
2022-11-12T23:20:30.554Z,17.55
2022-11-12T23:23:19.518Z,16.65
2022-11-12T23:26:11.334Z,17.30
2022-11-12T23:28:58.393Z,17.17
2022-11-12T23:31:45.573Z,17.90
2022-11-12T23:34:32.712Z,17.20
2022-11-12T23:37:19.640Z,17.75
2022-11-12T23:40:07.950Z,16.05
2022-11-12T23:42:56.858Z,15.88
2022-11-12T23:45:43.727Z,18.45
2022-11-12T23:48:30.912Z,15.80
2022-11-12T23:51:20.363Z,20.33
2022-11-12T23:54:07.382Z,22.45
2022-11-12T23:56:55.317Z,19.20
2022-11-12T23:59:43.812Z,19.05
